Time;durP1;ratioP1;P1;durP2;ratioP2;P2;SDS_P1;SDS_P2;PMS_P1;PMS_P2;Temp;Humidity;BMP_temperature;BMP_pressure;BME280_temperature;BME280_humidity;BME280_pressure;Samples;Min_cycle;Max_cycle;Signal;HPM_P1;HPM_P2
2023/06/19 00:00:12;;;;;;;2.72;2.53;;;;;;;24.34;40.92;100059.56;4524615;28;20049;-66
2023/06/19 00:02:23;;;;;;;2.60;2.40;;;;;;;24.33;41.18;100057.91;4524814;28;20060;-66
2023/06/19 00:04:33;;;;;;;2.70;2.50;;;;;;;24.30;41.31;100048.00;4529971;28;20064;-66
2023/06/19 00:06:44;;;;;;;2.58;2.38;;;;;;;24.33;41.01;100041.44;4525159;28;20036;-65
2023/06/19 00:08:54;;;;;;;3.10;2.80;;;;;;;24.28;41.06;100026.56;4526666;28;20042;-66
2023/06/19 00:11:05;;;;;;;3.30;3.00;;;;;;;24.32;41.03;100036.91;4525249;28;20042;-66
2023/06/19 00:13:15;;;;;;;2.70;2.50;;;;;;;24.34;41.08;100024.94;4524827;28;20045;-66
2023/06/19 00:15:27;;;;;;;2.80;2.60;;;;;;;24.30;41.05;100024.94;4526479;28;20036;-66
2023/06/19 00:17:37;;;;;;;3.20;2.90;;;;;;;24.33;41.26;100024.13;4530818;28;20528;-66
2023/06/19 00:19:48;;;;;;;2.80;2.60;;;;;;;24.30;41.55;100010.50;4531010;28;20037;-66
2023/06/19 00:22:00;;;;;;;3.00;2.70;;;;;;;24.31;41.67;99997.72;4526093;28;20045;-66
2023/06/19 00:24:10;;;;;;;2.55;2.35;;;;;;;24.31;41.76;99991.16;4524794;28;20121;-66
2023/06/19 00:26:25;;;;;;;3.03;2.72;;;;;;;24.31;41.70;99994.84;4525826;28;20029;-66
2023/06/19 00:28:41;;;;;;;3.03;2.72;;;;;;;24.30;42.17;99989.50;4524890;28;20361;-66
2023/06/19 00:30:51;;;;;;;2.88;2.58;;;;;;;24.32;42.17;99984.16;4527630;28;20136;-67
2023/06/19 00:33:02;;;;;;;3.00;2.70;;;;;;;24.30;42.18;99987.44;4526012;28;20029;-67
2023/06/19 00:35:17;;;;;;;2.80;2.60;;;;;;;24.31;42.18;99991.16;4524053;28;20046;-66
2023/06/19 00:37:32;;;;;;;3.13;2.80;;;;;;;24.30;42.09;99987.44;4528420;28;20041;-67
2023/06/19 00:39:43;;;;;;;2.70;2.50;;;;;;;24.30;42.41;99996.09;4533774;28;20081;-66
2023/06/19 00:41:55;;;;;;;2.80;2.60;;;;;;;24.32;42.43;99993.63;4527959;28;20171;-66
2023/06/19 00:44:05;;;;;;;3.15;2.85;;;;;;;24.28;42.78;99986.19;4528605;28;20044;-67
2023/06/19 00:46:16;;;;;;;2.83;2.60;;;;;;;24.30;42.71;99992.38;4525625;28;20092;-67
2023/06/19 00:48:31;;;;;;;2.67;2.47;;;;;;;24.28;42.96;99984.13;4533552;28;20037;-67
2023/06/19 00:50:41;;;;;;;2.65;2.45;;;;;;;24.29;43.07;99982.88;4528675;28;20128;-68
2023/06/19 00:52:52;;;;;;;2.80;2.53;;;;;;;24.30;43.21;99984.56;4528246;28;20292;-66
2023/06/19 00:55:05;;;;;;;2.92;2.45;;;;;;;24.29;43.00;99976.31;4509246;28;20624;-66
2023/06/19 00:57:15;;;;;;;2.60;2.40;;;;;;;24.28;42.94;99980.41;4528154;28;20140;-66
2023/06/19 00:59:26;;;;;;;2.83;2.55;;;;;;;24.27;43.25;99973.00;4525429;28;20759;-67
2023/06/19 01:01:36;;;;;;;2.42;2.22;;;;;;;24.23;43.36;99964.34;4527471;28;20069;-68
2023/06/19 01:03:47;;;;;;;2.72;2.50;;;;;;;24.30;43.03;99977.94;4516139;28;20105;-66
2023/06/19 01:06:00;;;;;;;2.58;2.38;;;;;;;24.25;43.34;99959.00;4527566;28;20383;-67
2023/06/19 01:08:50;;;;;;;2.53;2.33;;;;;;;24.30;43.30;99973.03;4526982;28;20025;-66
2023/06/19 01:11:03;;;;;;;2.47;2.28;;;;;;;24.31;43.06;99968.88;4525989;28;20048;-68
2023/06/19 01:13:25;;;;;;;3.00;2.70;;;;;;;24.31;43.29;99976.75;4525739;28;20021;-66
2023/06/19 01:15:36;;;;;;;2.58;2.38;;;;;;;24.28;43.34;99963.94;4542185;28;20052;-66
2023/06/19 01:17:48;;;;;;;2.67;2.42;;;;;;;24.29;43.40;99954.03;4525412;28;20045;-66
2023/06/19 01:20:00;;;;;;;2.40;2.20;;;;;;;24.31;43.53;99962.31;4528026;28;20604;-67
2023/06/19 01:22:10;;;;;;;2.83;2.53;;;;;;;24.27;43.62;99968.06;4528763;28;20824;-66
2023/06/19 01:24:20;;;;;;;2.78;2.40;;;;;;;24.28;43.67;99968.88;4512316;28;20076;-66
2023/06/19 01:26:31;;;;;;;2.60;2.40;;;;;;;24.29;44.01;99971.34;4527777;28;20043;-66
2023/06/19 01:28:44;;;;;;;2.75;2.55;;;;;;;24.28;44.18;99971.75;4528200;28;20029;-65
2023/06/19 01:30:58;;;;;;;2.70;2.50;;;;;;;24.25;44.17;99966.81;4541026;28;20608;-66
2023/06/19 01:33:10;;;;;;;2.67;2.47;;;;;;;24.30;44.58;99984.56;4525303;28;20065;-66
2023/06/19 01:35:27;;;;;;;2.47;2.28;;;;;;;24.31;44.42;99973.84;4527348;28;20079;-66
2023/06/19 01:37:40;;;;;;;3.28;2.97;;;;;;;24.31;44.20;99985.41;4525756;28;20088;-66
2023/06/19 01:39:50;;;;;;;2.75;2.55;;;;;;;24.30;44.38;99977.94;4526302;28;20033;-66
2023/06/19 01:42:02;;;;;;;2.80;2.60;;;;;;;24.27;44.36;99973.84;4532980;28;20021;-66
2023/06/19 01:44:15;;;;;;;3.15;2.85;;;;;;;24.28;44.53;99975.47;4541372;28;20040;-66
2023/06/19 01:46:25;;;;;;;2.70;2.50;;;;;;;24.28;44.84;99972.59;4527031;28;20029;-66
2023/06/19 01:48:38;;;;;;;2.83;2.53;;;;;;;24.29;44.90;99965.56;4541511;28;20036;-65
2023/06/19 01:50:50;;;;;;;2.58;2.38;;;;;;;24.25;45.12;99964.75;4525105;28;20025;-66
2023/06/19 01:53:01;;;;;;;2.97;2.67;;;;;;;24.28;45.00;99963.09;4525658;28;20124;-67
2023/06/19 01:55:11;;;;;;;2.70;2.50;;;;;;;24.29;45.45;99965.56;4531037;28;20087;-66
2023/06/19 01:57:22;;;;;;;2.85;2.53;;;;;;;24.29;45.54;99961.88;4524533;28;20048;-66
2023/06/19 01:59:32;;;;;;;2.60;2.40;;;;;;;24.26;45.77;99954.88;4523612;28;20033;-66
2023/06/19 02:01:43;;;;;;;2.60;2.40;;;;;;;24.27;45.87;99958.56;4515786;28;20037;-66
2023/06/19 02:03:53;;;;;;;2.33;2.13;;;;;;;24.28;46.16;99963.09;4527256;28;20033;-65
2023/06/19 02:06:03;;;;;;;2.70;2.50;;;;;;;24.24;45.88;99942.09;4528118;28;20396;-66
2023/06/19 02:08:14;;;;;;;2.72;2.50;;;;;;;24.28;46.19;99952.41;4541318;28;20040;-66
2023/06/19 02:10:24;;;;;;;2.70;2.50;;;;;;;24.16;46.12;99929.72;4524755;28;20155;-66
2023/06/19 02:12:35;;;;;;;2.60;2.40;;;;;;;24.28;45.94;99948.69;4525123;28;20060;-66
2023/06/19 02:14:45;;;;;;;2.78;2.55;;;;;;;24.26;46.08;99942.53;4532107;28;20504;-66
2023/06/19 02:16:56;;;;;;;2.60;2.40;;;;;;;24.25;45.95;99935.91;4516332;28;20100;-66
2023/06/19 02:19:06;;;;;;;2.50;2.30;;;;;;;24.30;46.06;99943.34;4526377;28;20040;-66
2023/06/19 02:21:17;;;;;;;2.80;2.60;;;;;;;24.24;46.25;99934.28;4532068;28;20494;-66
2023/06/19 02:23:27;;;;;;;2.72;2.50;;;;;;;24.27;46.47;99945.00;4527502;28;20546;-66
2023/06/19 02:25:38;;;;;;;2.63;2.42;;;;;;;24.29;46.71;99947.47;4527255;28;20037;-66
2023/06/19 02:27:48;;;;;;;2.50;2.30;;;;;;;24.28;47.07;99952.41;4525555;28;20033;-66
2023/06/19 02:29:59;;;;;;;2.58;2.38;;;;;;;24.30;47.48;99954.88;4524488;28;20041;-66
2023/06/19 02:32:09;;;;;;;2.55;2.35;;;;;;;24.24;47.43;99939.22;4528674;28;20033;-67
2023/06/19 02:34:19;;;;;;;2.50;2.30;;;;;;;24.28;47.01;99946.63;4530181;28;20048;-66
2023/06/19 02:36:31;;;;;;;2.70;2.50;;;;;;;24.27;46.85;99956.53;4526034;28;20029;-66
2023/06/19 02:38:42;;;;;;;2.67;2.47;;;;;;;24.29;46.88;99959.81;4526613;28;20485;-66
2023/06/19 02:40:53;;;;;;;2.75;2.47;;;;;;;24.30;46.84;99960.66;4525128;28;20144;-66
2023/06/19 02:43:03;;;;;;;2.60;2.40;;;;;;;24.21;47.31;99952.41;4509455;28;20038;-67
2023/06/19 02:45:15;;;;;;;2.70;2.50;;;;;;;24.25;47.67;99950.34;4524923;28;20052;-66
2023/06/19 02:47:25;;;;;;;2.67;2.47;;;;;;;24.30;47.83;99964.38;4523445;28;20072;-66
2023/06/19 02:49:36;;;;;;;2.90;2.70;;;;;;;24.24;47.84;99951.59;4531408;28;20135;-66
2023/06/19 02:51:47;;;;;;;2.70;2.50;;;;;;;24.28;47.74;99963.09;4524911;28;20324;-66
2023/06/19 02:53:57;;;;;;;2.88;2.50;;;;;;;24.28;47.53;99958.16;4523882;28;20040;-66
2023/06/19 02:56:08;;;;;;;2.67;2.47;;;;;;;24.29;47.03;99961.88;4530155;28;20123;-66
2023/06/19 02:58:18;;;;;;;2.65;2.45;;;;;;;24.30;46.69;99967.25;4527129;28;20049;-66
2023/06/19 03:00:29;;;;;;;3.00;2.70;;;;;;;24.28;46.46;99957.34;4509794;28;20511;-66
2023/06/19 03:02:42;;;;;;;2.50;2.30;;;;;;;24.30;46.21;99967.25;4526078;28;20105;-66
2023/06/19 03:04:53;;;;;;;2.88;2.58;;;;;;;24.28;46.36;99966.81;4532091;28;20041;-66
2023/06/19 03:07:04;;;;;;;2.60;2.40;;;;;;;24.26;46.54;99962.72;4538120;28;20040;-66
2023/06/19 03:09:15;;;;;;;2.60;2.40;;;;;;;24.29;46.16;99974.22;4524660;28;20092;-66
2023/06/19 03:11:26;;;;;;;2.75;2.55;;;;;;;24.29;46.00;99970.53;4531442;28;20075;-66
2023/06/19 03:13:54;;;;;;;2.60;2.40;;;;;;;24.31;45.88;99976.75;4530240;28;20107;-66
2023/06/19 03:16:04;;;;;;;2.80;2.55;;;;;;;24.28;45.67;99975.47;4526102;28;20198;-66
2023/06/19 03:18:15;;;;;;;2.70;2.50;;;;;;;24.25;45.49;99967.63;4531147;28;20218;-65
2023/06/19 03:20:25;;;;;;;2.67;2.47;;;;;;;24.30;45.32;99983.72;4531276;28;20661;-65
2023/06/19 03:22:41;;;;;;;2.97;2.70;;;;;;;24.30;45.73;99984.56;4530655;28;20206;-65
2023/06/19 03:24:52;;;;;;;2.72;2.53;;;;;;;24.29;45.98;99982.88;4538490;28;20067;-65
2023/06/19 03:27:06;;;;;;;2.78;2.50;;;;;;;24.27;46.17;99978.78;4522226;28;20032;-65
2023/06/19 03:29:16;;;;;;;3.13;2.60;;;;;;;24.28;46.03;99975.47;4524448;28;20119;-65
2023/06/19 03:31:40;;;;;;;2.85;2.65;;;;;;;24.26;45.94;99972.16;4532007;28;20036;-65
2023/06/19 03:33:52;;;;;;;2.58;2.38;;;;;;;24.28;46.07;99987.00;4530742;28;20029;-65
2023/06/19 03:36:04;;;;;;;2.65;2.45;;;;;;;24.29;46.22;99988.66;4531131;28;20075;-65
2023/06/19 03:38:34;;;;;;;3.17;2.88;;;;;;;24.22;46.10;99980.00;4524301;28;20099;-65
2023/06/19 03:40:46;;;;;;;2.80;2.58;;;;;;;24.29;46.62;99994.41;4530921;28;20069;-65
2023/06/19 03:42:57;;;;;;;2.80;2.60;;;;;;;24.30;46.84;100001.03;4530841;28;20076;-65
2023/06/19 03:45:08;;;;;;;2.92;2.70;;;;;;;24.28;46.88;99992.78;4530256;28;20040;-65
2023/06/19 03:47:19;;;;;;;2.67;2.45;;;;;;;24.28;47.39;99992.78;4540753;28;20636;-64
2023/06/19 03:49:29;;;;;;;2.90;2.60;;;;;;;24.20;47.06;99982.44;4540121;28;20043;-65
2023/06/19 03:51:40;;;;;;;3.10;2.80;;;;;;;24.30;46.74;99996.09;4524265;28;20034;-65
2023/06/19 03:53:51;;;;;;;2.75;2.55;;;;;;;24.27;46.16;100002.69;4520439;28;20908;-65
2023/06/19 03:56:01;;;;;;;2.55;2.35;;;;;;;24.27;46.41;99996.06;4530006;28;20036;-65
2023/06/19 03:58:12;;;;;;;2.70;2.50;;;;;;;24.29;46.56;99999.38;4524714;28;20034;-65
2023/06/19 04:00:22;;;;;;;2.95;2.67;;;;;;;24.30;46.53;100001.03;4523877;28;20038;-65
2023/06/19 04:02:34;;;;;;;3.22;2.75;;;;;;;24.29;46.22;100005.97;4526331;28;20041;-65
2023/06/19 04:04:45;;;;;;;2.85;2.60;;;;;;;24.29;46.25;100000.19;4523835;28;20025;-65
2023/06/19 04:06:55;;;;;;;2.90;2.60;;;;;;;24.21;46.19;99989.06;4529514;28;20037;-65
2023/06/19 04:09:05;;;;;;;2.95;2.60;;;;;;;24.30;46.40;100007.63;4528683;28;20043;-65
2023/06/19 04:11:34;;;;;;;2.88;2.63;;;;;;;24.23;46.48;99990.28;4544099;28;20048;-65
2023/06/19 04:13:47;;;;;;;2.58;2.38;;;;;;;24.31;46.30;100009.28;4527169;28;21337;-65
2023/06/19 04:15:57;;;;;;;2.70;2.50;;;;;;;24.28;46.44;100007.19;4533520;28;20091;-65
2023/06/19 04:18:07;;;;;;;3.03;2.72;;;;;;;24.23;46.35;100001.81;4534179;28;20073;-65
2023/06/19 04:20:18;;;;;;;3.28;2.97;;;;;;;24.29;46.51;100017.50;4529059;28;20033;-65
2023/06/19 04:22:30;;;;;;;2.70;2.50;;;;;;;24.27;46.68;100014.22;4533811;28;21847;-65
2023/06/19 04:24:41;;;;;;;2.95;2.65;;;;;;;24.14;46.41;99995.63;4533882;28;20037;-65
2023/06/19 04:26:52;;;;;;;3.08;2.75;;;;;;;24.28;46.92;100027.38;4533177;28;20139;-65
2023/06/19 04:29:03;;;;;;;2.60;2.40;;;;;;;24.28;47.05;100027.38;4532742;28;20037;-65
2023/06/19 04:31:17;;;;;;;2.67;2.47;;;;;;;24.26;47.45;100029.84;4528009;28;20401;-65
2023/06/19 04:33:29;;;;;;;2.70;2.50;;;;;;;24.29;47.99;100037.69;4527354;28;20612;-65
2023/06/19 04:35:42;;;;;;;2.78;2.58;;;;;;;24.28;48.43;100030.28;4527403;28;20029;-65
2023/06/19 04:37:53;;;;;;;2.75;2.40;;;;;;;24.30;49.26;100039.34;4527093;28;20591;-65
2023/06/19 04:40:04;;;;;;;2.55;2.35;;;;;;;24.30;48.99;100042.25;4527084;28;20151;-65
2023/06/19 04:42:20;;;;;;;2.65;2.45;;;;;;;24.28;49.44;100052.50;4527039;28;20069;-65
2023/06/19 04:44:33;;;;;;;2.90;2.60;;;;;;;24.30;49.25;100050.91;4526818;28;20030;-65
2023/06/19 04:46:43;;;;;;;3.10;2.80;;;;;;;24.28;48.70;100044.69;4527817;28;20036;-65
2023/06/19 04:48:55;;;;;;;2.60;2.40;;;;;;;24.29;47.90;100057.06;4528396;28;20516;-65
2023/06/19 04:51:05;;;;;;;2.50;2.28;;;;;;;24.28;46.95;100056.22;4528062;28;20071;-65
2023/06/19 04:53:16;;;;;;;2.70;2.50;;;;;;;24.29;46.74;100054.19;4527588;28;20034;-65
2023/06/19 04:55:26;;;;;;;2.42;2.10;;;;;;;24.26;46.28;100055.00;4530314;28;20151;-65
2023/06/19 04:57:37;;;;;;;2.70;2.50;;;;;;;24.29;46.18;100063.63;4528308;28;20036;-65
2023/06/19 04:59:48;;;;;;;2.38;2.17;;;;;;;24.27;46.08;100060.34;4509625;28;20049;-65
2023/06/19 05:01:59;;;;;;;2.22;2.03;;;;;;;24.22;45.92;100052.09;4528521;28;20041;-65
2023/06/19 05:04:10;;;;;;;2.40;2.20;;;;;;;24.26;45.69;100058.69;4529249;28;20033;-65
2023/06/19 05:06:24;;;;;;;2.10;1.92;;;;;;;24.30;45.95;100073.97;4527101;28;20165;-65
2023/06/19 05:08:34;;;;;;;2.03;1.83;;;;;;;24.29;46.33;100069.41;4529071;28;20060;-65
2023/06/19 05:10:45;;;;;;;2.03;1.83;;;;;;;24.27;46.05;100060.34;4527566;28;21489;-65
2023/06/19 05:12:55;;;;;;;1.98;1.80;;;;;;;24.29;46.43;100066.53;4527135;28;20065;-65
2023/06/19 05:15:06;;;;;;;2.00;1.80;;;;;;;24.28;46.67;100067.78;4528461;28;20037;-65
2023/06/19 05:17:16;;;;;;;1.70;1.60;;;;;;;24.29;46.67;100069.41;4526907;28;20029;-65
2023/06/19 05:19:27;;;;;;;2.03;1.83;;;;;;;24.28;46.96;100079.31;4527430;28;20107;-65
2023/06/19 05:21:38;;;;;;;1.70;1.60;;;;;;;24.25;47.32;100068.59;4527632;28;20041;-65
2023/06/19 05:23:50;;;;;;;2.00;1.80;;;;;;;24.28;47.45;100085.06;4528209;28;20037;-65
2023/06/19 05:26:00;;;;;;;2.10;1.90;;;;;;;24.30;47.27;100090.44;4525528;28;20041;-65
2023/06/19 05:28:11;;;;;;;1.45;1.35;;;;;;;24.29;47.51;100094.56;4527589;28;20029;-65
2023/06/19 05:30:21;;;;;;;2.00;1.80;;;;;;;24.29;47.20;100092.50;4526972;28;20041;-64
2023/06/19 05:32:32;;;;;;;2.00;1.80;;;;;;;24.30;47.10;100096.22;4526977;28;20492;-65
2023/06/19 05:34:42;;;;;;;1.63;1.52;;;;;;;24.31;47.27;100095.00;4524852;28;20060;-64
2023/06/19 05:36:53;;;;;;;1.75;1.65;;;;;;;24.30;47.48;100099.09;4527420;28;20031;-65
2023/06/19 05:39:04;;;;;;;1.98;1.80;;;;;;;24.29;47.71;100092.50;4526058;28;20497;-65
2023/06/19 05:41:16;;;;;;;1.50;1.40;;;;;;;24.33;47.65;100093.34;4528082;28;20026;-65
2023/06/19 05:43:26;;;;;;;0.85;0.70;;;;;;;24.38;46.97;100092.13;4526525;28;20037;-64
2023/06/19 05:45:37;;;;;;;0.65;0.65;;;;;;;24.49;46.12;100108.25;4525251;28;20429;-64
2023/06/19 05:47:47;;;;;;;0.60;0.60;;;;;;;24.56;46.28;100111.16;4526054;28;20045;-65
2023/06/19 05:49:58;;;;;;;0.60;0.60;;;;;;;24.60;46.17;100102.53;4532541;28;20025;-65
2023/06/19 05:52:09;;;;;;;0.60;0.60;;;;;;;24.62;45.90;100112.44;4525385;28;20154;-64
2023/06/19 05:54:19;;;;;;;0.47;0.47;;;;;;;24.61;45.91;100105.00;4524127;28;20026;-64
2023/06/19 05:56:33;;;;;;;0.55;0.50;;;;;;;24.69;45.93;100123.19;4525124;28;20528;-64
2023/06/19 05:58:43;;;;;;;0.50;0.50;;;;;;;24.65;45.61;100125.22;4541220;28;20047;-64
2023/06/19 06:00:57;;;;;;;0.50;0.50;;;;;;;24.70;45.79;100124.88;4525677;28;20044;-64
2023/06/19 06:03:07;;;;;;;0.50;0.50;;;;;;;24.71;45.65;100132.28;4526229;28;20733;-64
2023/06/19 06:05:20;;;;;;;0.60;0.60;;;;;;;24.70;45.79;100134.34;4527457;28;20051;-64
2023/06/19 06:07:30;;;;;;;0.50;0.50;;;;;;;24.74;45.65;100135.19;4527547;28;20028;-70
2023/06/19 06:09:41;;;;;;;0.70;0.70;;;;;;;24.68;45.65;100131.03;4532168;28;20048;-65
2023/06/19 06:11:51;;;;;;;0.50;0.50;;;;;;;24.71;46.08;100129.38;4526783;28;20029;-65
2023/06/19 06:14:02;;;;;;;0.60;0.60;;;;;;;24.74;45.40;100140.97;4525319;28;20033;-66
2023/06/19 06:16:12;;;;;;;0.50;0.50;;;;;;;24.75;45.64;100151.25;4527331;28;20036;-65
2023/06/19 06:18:23;;;;;;;0.63;0.63;;;;;;;24.76;45.59;100152.09;4526883;28;20612;-66
2023/06/19 06:20:33;;;;;;;0.60;0.60;;;;;;;24.76;45.50;100154.97;4526526;28;20068;-64
2023/06/19 06:22:43;;;;;;;0.70;0.70;;;;;;;24.73;45.65;100153.75;4526384;28;20048;-61
2023/06/19 06:24:54;;;;;;;0.70;0.60;;;;;;;24.77;45.73;100157.47;4525697;28;20033;-65
2023/06/19 06:27:06;;;;;;;0.70;0.65;;;;;;;24.79;45.90;100159.94;4524864;28;20053;-65
2023/06/19 06:29:16;;;;;;;0.55;0.55;;;;;;;24.79;46.03;100157.88;4526692;28;20144;-65
2023/06/19 06:31:27;;;;;;;0.60;0.60;;;;;;;24.76;45.81;100158.72;4526892;28;20893;-65
2023/06/19 06:33:38;;;;;;;0.60;0.60;;;;;;;24.81;45.79;100178.53;4526361;28;20038;-65
2023/06/19 06:35:48;;;;;;;0.65;0.52;;;;;;;24.80;45.74;100176.03;4525853;28;20551;-64
2023/06/19 06:37:59;;;;;;;0.60;0.60;;;;;;;24.82;45.65;100188.00;4525952;28;20111;-64
2023/06/19 06:40:10;;;;;;;0.50;0.50;;;;;;;24.77;45.59;100182.59;4524600;28;20124;-65
2023/06/19 06:42:21;;;;;;;0.75;0.68;;;;;;;24.80;45.74;100181.81;4526307;28;20025;-64
2023/06/19 06:44:31;;;;;;;0.40;0.40;;;;;;;24.82;45.68;100179.34;4526186;28;20037;-65
2023/06/19 06:46:42;;;;;;;1.30;0.68;;;;;;;24.80;45.77;100176.03;4526621;28;20033;-65
2023/06/19 06:48:52;;;;;;;0.40;0.40;;;;;;;24.77;45.75;100171.91;4526005;28;20047;-65
2023/06/19 06:51:03;;;;;;;0.50;0.50;;;;;;;24.79;45.71;100183.88;4526629;28;20091;-65
2023/06/19 06:53:13;;;;;;;0.93;0.60;;;;;;;24.83;45.61;100181.81;4525962;28;20619;-65
2023/06/19 06:55:24;;;;;;;0.60;0.60;;;;;;;24.77;45.57;100174.78;4525670;28;20112;-64
2023/06/19 06:57:35;;;;;;;0.60;0.52;;;;;;;24.82;45.48;100180.16;4524682;28;20636;-64
2023/06/19 06:59:45;;;;;;;0.50;0.50;;;;;;;24.78;45.66;100182.19;4526179;28;20476;-64
2023/06/19 07:01:56;;;;;;;1.00;0.60;;;;;;;24.81;45.62;100186.34;4524960;28;20041;-64
2023/06/19 07:04:06;;;;;;;0.50;0.50;;;;;;;24.82;45.78;100185.94;4524972;28;20093;-64
2023/06/19 07:06:16;;;;;;;0.50;0.50;;;;;;;24.83;45.61;100186.78;4530823;28;20065;-67
2023/06/19 07:08:27;;;;;;;0.70;0.70;;;;;;;24.85;45.44;100178.50;4525671;28;20056;-67
2023/06/19 07:10:37;;;;;;;0.50;0.50;;;;;;;24.85;45.65;100185.13;4525295;28;20029;-67
2023/06/19 07:12:48;;;;;;;0.80;0.57;;;;;;;24.78;45.36;100172.72;4524936;28;20055;-67
2023/06/19 07:14:58;;;;;;;0.50;0.50;;;;;;;24.84;45.60;100189.25;4524501;28;20039;-67
2023/06/19 07:17:09;;;;;;;0.60;0.60;;;;;;;24.83;45.55;100199.13;4525801;28;20448;-68
2023/06/19 07:19:19;;;;;;;0.95;0.60;;;;;;;24.85;45.55;100196.69;4524431;28;20043;-68
2023/06/19 07:21:30;;;;;;;0.40;0.40;;;;;;;24.86;45.20;100206.97;4524357;28;20041;-72
2023/06/19 07:23:43;;;;;;;0.35;0.35;;;;;;;24.85;45.67;100202.44;4523651;28;20080;-68
2023/06/19 07:25:53;;;;;;;0.50;0.50;;;;;;;24.86;45.37;100198.31;4525367;28;20043;-67
2023/06/19 07:28:04;;;;;;;0.45;0.45;;;;;;;24.87;45.43;100208.66;4526441;28;20519;-68
2023/06/19 07:30:14;;;;;;;0.47;0.47;;;;;;;24.86;45.52;100209.06;4530255;28;20039;-67
2023/06/19 07:32:25;;;;;;;0.63;0.60;;;;;;;24.87;45.49;100211.53;4513681;28;20536;-68
2023/06/19 07:34:35;;;;;;;0.50;0.50;;;;;;;24.88;45.15;100218.94;4530075;28;20104;-68
2023/06/19 07:36:46;;;;;;;0.40;0.40;;;;;;;24.89;45.55;100214.03;4522785;28;20103;-68
2023/06/19 07:38:56;;;;;;;0.45;0.45;;;;;;;24.88;45.44;100218.94;4522550;28;20767;-68
2023/06/19 07:41:09;;;;;;;0.40;0.40;;;;;;;24.87;45.75;100211.53;4523532;28;20524;-68
2023/06/19 07:43:22;;;;;;;0.50;0.50;;;;;;;24.89;45.45;100214.81;4526147;28;20109;-69
2023/06/19 07:45:35;;;;;;;0.50;0.50;;;;;;;24.88;45.71;100212.34;4525430;28;20037;-68
2023/06/19 07:47:54;;;;;;;0.40;0.40;;;;;;;24.89;45.56;100216.91;4523495;28;20154;-68
2023/06/19 07:50:05;;;;;;;0.50;0.50;;;;;;;24.88;45.44;100218.94;4525521;28;20629;-68
2023/06/19 07:52:15;;;;;;;0.40;0.40;;;;;;;24.88;45.42;100218.13;4507377;28;20151;-68
2023/06/19 07:54:26;;;;;;;0.45;0.45;;;;;;;24.88;45.48;100218.94;4524818;28;20824;-68
2023/06/19 07:56:36;;;;;;;0.50;0.50;;;;;;;24.88;45.46;100233.38;4524637;28;20036;-68
2023/06/19 07:58:47;;;;;;;0.50;0.50;;;;;;;24.78;45.28;100211.06;4524887;28;20037;-68
2023/06/19 08:00:57;;;;;;;0.50;0.50;;;;;;;24.88;45.51;100230.50;4524981;28;20048;-68
2023/06/19 08:03:07;;;;;;;0.50;0.50;;;;;;;24.86;45.58;100221.41;4523084;28;20037;-68
2023/06/19 08:05:18;;;;;;;0.40;0.40;;;;;;;24.88;45.42;100227.63;4523968;28;20053;-68
2023/06/19 08:07:29;;;;;;;0.40;0.40;;;;;;;24.88;45.59;100229.66;4525369;28;20130;-68
2023/06/19 08:09:39;;;;;;;0.50;0.50;;;;;;;24.88;45.46;100227.63;4525324;28;20583;-68
2023/06/19 08:11:50;;;;;;;0.40;0.40;;;;;;;24.88;45.34;100224.72;4524982;28;20126;-68
2023/06/19 08:14:00;;;;;;;0.47;0.47;;;;;;;24.92;45.29;100230.53;4525393;28;20118;-68
2023/06/19 08:16:11;;;;;;;0.40;0.40;;;;;;;24.91;45.50;100238.34;4524098;28;20489;-68
2023/06/19 08:18:21;;;;;;;0.50;0.50;;;;;;;24.90;45.58;100233.81;4524403;28;20175;-68
2023/06/19 08:20:32;;;;;;;0.40;0.40;;;;;;;24.91;45.54;100235.47;4524502;28;20040;-68
2023/06/19 08:22:42;;;;;;;0.40;0.40;;;;;;;24.87;45.57;100225.13;4524345;28;20180;-68
2023/06/19 08:24:53;;;;;;;0.50;0.50;;;;;;;24.92;45.39;100244.97;4524387;28;20122;-68
2023/06/19 08:27:03;;;;;;;0.50;0.50;;;;;;;24.90;45.44;100247.41;4524273;28;20044;-69
2023/06/19 08:29:14;;;;;;;0.40;0.40;;;;;;;24.94;45.54;100257.75;4524128;28;20070;-68
2023/06/19 08:31:27;;;;;;;0.40;0.40;;;;;;;24.94;45.50;100257.75;4524201;28;20044;-68
2023/06/19 08:33:37;;;;;;;0.45;0.45;;;;;;;24.94;45.47;100263.53;4524843;28;20041;-68
2023/06/19 08:35:48;;;;;;;0.40;0.40;;;;;;;24.93;45.34;100261.88;4524625;28;20034;-69
2023/06/19 08:37:58;;;;;;;0.40;0.40;;;;;;;24.94;45.57;100268.50;4524794;28;20041;-68
2023/06/19 08:40:09;;;;;;;0.45;0.45;;;;;;;24.93;45.19;100261.88;4524362;28;20525;-68
2023/06/19 08:42:20;;;;;;;0.50;0.50;;;;;;;24.93;45.60;100261.88;4525962;28;20037;-68
2023/06/19 08:44:30;;;;;;;0.50;0.50;;;;;;;24.85;45.29;100247.81;4528811;28;20033;-68
2023/06/19 08:46:41;;;;;;;0.40;0.40;;;;;;;24.95;45.28;100268.09;4524458;28;20033;-68
2023/06/19 08:48:54;;;;;;;0.40;0.40;;;;;;;24.96;45.25;100266.84;4525864;28;20033;-69
2023/06/19 08:51:05;;;;;;;0.60;0.57;;;;;;;24.95;45.21;100268.09;4538721;28;20112;-68
2023/06/19 08:53:16;;;;;;;0.50;0.45;;;;;;;24.97;45.64;100277.16;4527343;28;20102;-68
2023/06/19 08:55:26;;;;;;;0.40;0.40;;;;;;;24.96;45.40;100272.63;4527964;28;20047;-68
2023/06/19 08:57:39;;;;;;;0.40;0.40;;;;;;;24.96;45.03;100272.63;4529039;28;20033;-69
2023/06/19 08:59:50;;;;;;;0.40;0.40;;;;;;;24.97;45.36;100274.25;4529305;28;20041;-68
2023/06/19 09:02:00;;;;;;;0.40;0.40;;;;;;;24.97;44.98;100274.25;4540456;28;20025;-68
2023/06/19 09:04:15;;;;;;;0.40;0.40;;;;;;;24.99;45.59;100270.97;4544295;28;20037;-69
2023/06/19 09:06:26;;;;;;;0.40;0.40;;;;;;;24.97;45.32;100273.47;4529750;28;20033;-68
2023/06/19 09:08:37;;;;;;;0.40;0.40;;;;;;;24.98;45.17;100275.09;4526995;28;20044;-68
2023/06/19 09:11:04;;;;;;;0.40;0.40;;;;;;;24.97;45.30;100277.16;4528384;28;20037;-69
2023/06/19 09:13:16;;;;;;;0.50;0.50;;;;;;;24.95;45.24;100285.41;4509561;28;20151;-68
2023/06/19 09:15:29;;;;;;;0.30;0.30;;;;;;;24.99;45.42;100292.00;4527886;28;20017;-68
2023/06/19 09:17:39;;;;;;;0.40;0.40;;;;;;;25.00;45.43;100285.03;4533627;28;20116;-69
2023/06/19 09:20:00;;;;;;;0.30;0.30;;;;;;;24.94;45.31;100283.72;4533183;28;20033;-68
2023/06/19 09:22:10;;;;;;;0.40;0.40;;;;;;;25.01;45.34;100294.50;4527492;28;20107;-68
2023/06/19 09:24:21;;;;;;;0.50;0.50;;;;;;;25.02;45.29;100305.66;4526801;28;20084;-69
2023/06/19 09:26:31;;;;;;;0.32;0.32;;;;;;;24.99;45.31;100294.06;4527542;28;20440;-68
2023/06/19 09:28:42;;;;;;;0.40;0.40;;;;;;;25.02;45.27;100288.31;4527575;28;20033;-68
2023/06/19 09:30:59;;;;;;;0.40;0.40;;;;;;;25.02;45.36;100310.63;4526782;28;20108;-69
2023/06/19 09:33:09;;;;;;;0.30;0.30;;;;;;;25.00;45.33;100295.75;4527861;28;20025;-68
2023/06/19 09:35:20;;;;;;;0.40;0.40;;;;;;;24.91;45.47;100292.41;4528680;28;20037;-69
2023/06/19 09:37:31;;;;;;;0.40;0.40;;;;;;;24.99;45.29;100302.72;4528600;28;20037;-68
2023/06/19 09:39:42;;;;;;;0.32;0.32;;;;;;;25.02;45.50;100305.66;4533556;28;20155;-68
2023/06/19 09:41:58;;;;;;;0.50;0.50;;;;;;;25.02;45.22;100310.63;4524976;28;20018;-68
2023/06/19 09:44:12;;;;;;;0.40;0.40;;;;;;;24.99;45.22;100306.44;4526925;28;20462;-67
2023/06/19 09:46:29;;;;;;;0.40;0.40;;;;;;;25.01;45.28;100306.88;4527336;28;20042;-68
2023/06/19 09:48:44;;;;;;;0.30;0.30;;;;;;;25.00;45.34;100302.34;4526842;28;20037;-67
2023/06/19 09:50:59;;;;;;;0.30;0.30;;;;;;;25.03;45.10;100301.53;4526845;28;20021;-68
2023/06/19 09:53:10;;;;;;;0.40;0.40;;;;;;;25.03;45.26;100313.09;4526983;28;20043;-68
2023/06/19 09:55:24;;;;;;;0.30;0.30;;;;;;;25.04;45.32;100311.00;4527031;28;20665;-68
2023/06/19 09:57:37;;;;;;;0.40;0.40;;;;;;;25.02;45.31;100308.53;4541026;28;20276;-68
2023/06/19 09:59:50;;;;;;;0.40;0.40;;;;;;;25.04;45.29;100314.75;4527083;28;20079;-68
2023/06/19 10:02:03;;;;;;;0.30;0.30;;;;;;;25.05;45.24;100304.81;4525698;28;20229;-68
2023/06/19 10:04:16;;;;;;;0.30;0.30;;;;;;;25.05;45.40;100293.28;4528518;28;20062;-68
2023/06/19 10:06:27;;;;;;;0.32;0.32;;;;;;;25.07;45.23;100294.94;4527692;28;20037;-67
2023/06/19 10:08:41;;;;;;;0.40;0.40;;;;;;;25.05;45.24;100296.16;4529355;28;20040;-68
2023/06/19 10:10:55;;;;;;;0.95;0.38;;;;;;;25.07;45.06;100304.41;4525586;28;20037;-68
2023/06/19 10:13:13;;;;;;;0.38;0.38;;;;;;;25.07;45.32;100303.63;4526192;28;20042;-68
2023/06/19 10:15:23;;;;;;;0.40;0.40;;;;;;;25.08;45.27;100306.91;4526857;28;20620;-68